Time;durP1;ratioP1;P1;durP2;ratioP2;P2;SDS_P1;SDS_P2;PMS_P1;PMS_P2;Temp;Humidity;BMP_temperature;BMP_pressure;BME280_temperature;BME280_humidity;BME280_pressure;Samples;Min_cycle;Max_cycle;Signal;HPM_P1;HPM_P2
2022/12/21 00:01:44;;;;;;;20.75;17.40;;;;;;;7.39;99.28;98027.97;4166486;28;20207;-89
2022/12/21 00:03:55;;;;;;;20.80;16.20;;;;;;;7.39;98.33;98026.22;4155627;28;20694;-88
2022/12/21 00:05:58;;;;;;;24.15;16.75;;;;;;;7.40;99.16;98032.25;4157230;28;20202;-88
2022/12/21 00:08:01;;;;;;;20.43;15.90;;;;;;;7.41;98.14;98029.53;4172801;28;20205;-88
2022/12/21 00:10:04;;;;;;;19.50;15.50;;;;;;;7.42;99.38;98035.59;4151980;28;21226;-88
2022/12/21 00:12:08;;;;;;;21.90;15.85;;;;;;;7.44;98.22;98038.94;4153124;28;20638;-88
2022/12/21 00:14:11;;;;;;;19.98;15.80;;;;;;;7.45;98.25;98040.59;4156474;28;20253;-89
2022/12/21 00:16:18;;;;;;;18.98;15.55;;;;;;;7.44;99.12;98039.75;4142295;28;20226;-88
2022/12/21 00:18:21;;;;;;;16.13;14.30;;;;;;;7.46;98.74;98037.94;4133574;28;20211;-88
2022/12/21 00:20:25;;;;;;;19.83;16.42;;;;;;;7.47;99.71;98031.78;4169320;28;20219;-88
2022/12/21 00:22:30;;;;;;;20.38;16.02;;;;;;;7.46;98.83;98035.34;4152120;28;20203;-88
2022/12/21 00:24:33;;;;;;;21.35;16.50;;;;;;;7.44;99.23;98028.56;4141868;28;20245;-88
2022/12/21 00:26:37;;;;;;;19.40;15.80;;;;;;;7.39;99.45;98025.38;4155754;28;20733;-88
2022/12/21 00:28:40;;;;;;;19.95;15.40;;;;;;;7.37;98.88;98030.66;4157837;28;20207;-88
2022/12/21 00:30:44;;;;;;;23.70;16.95;;;;;;;7.39;99.04;98027.97;4142778;28;20212;-88
2022/12/21 00:32:49;;;;;;;23.60;17.73;;;;;;;7.40;100.00;98022.72;4137701;28;20248;-88
2022/12/21 00:34:52;;;;;;;18.63;15.95;;;;;;;7.41;99.67;98033.91;4152218;28;20622;-88
2022/12/21 00:36:56;;;;;;;24.25;17.90;;;;;;;7.44;99.63;98029.38;4152390;28;20192;-88
2022/12/21 00:38:59;;;;;;;24.55;19.08;;;;;;;7.43;99.22;98027.72;4155664;28;20753;-87
2022/12/21 00:41:04;;;;;;;25.00;19.90;;;;;;;7.40;100.00;98027.06;4156471;28;20326;-87
2022/12/21 00:43:08;;;;;;;21.42;17.08;;;;;;;7.38;100.00;98024.56;4157039;28;20239;-88
2022/12/21 00:45:12;;;;;;;20.27;16.88;;;;;;;7.34;100.00;98028.25;4152882;28;20215;-87
2022/12/21 00:47:15;;;;;;;19.08;15.73;;;;;;;7.39;100.00;98030.56;4166711;28;20214;-87
2022/12/21 00:49:20;;;;;;;23.83;17.33;;;;;;;7.40;99.61;98027.06;4164860;28;20563;-87
2022/12/21 00:51:29;;;;;;;22.23;16.85;;;;;;;7.39;100.00;98025.38;4169236;28;20275;-87
2022/12/21 00:53:41;;;;;;;21.33;16.23;;;;;;;7.43;99.85;98037.25;4154350;28;20211;-88
2022/12/21 00:55:54;;;;;;;22.02;15.73;;;;;;;7.41;100.00;98032.16;4184541;28;20236;-87
2022/12/21 00:58:00;;;;;;;20.30;15.75;;;;;;;7.41;99.78;98029.53;4152223;28;20294;-87
2022/12/21 01:00:03;;;;;;;17.92;14.73;;;;;;;7.40;99.56;98033.09;4168438;28;20234;-87
2022/12/21 01:02:07;;;;;;;21.08;15.18;;;;;;;7.39;99.83;98038.38;4154132;28;20328;-87
2022/12/21 01:04:11;;;;;;;23.45;17.23;;;;;;;7.39;99.81;98031.41;4160356;28;20214;-88
2022/12/21 01:06:17;;;;;;;18.40;15.13;;;;;;;7.40;100.00;98043.47;4144001;28;20262;-87
2022/12/21 01:08:21;;;;;;;20.67;16.27;;;;;;;7.40;100.00;98040.88;4168993;28;20283;-87
2022/12/21 01:10:24;;;;;;;18.45;14.77;;;;;;;7.41;100.00;98033.91;4154210;28;20253;-88
2022/12/21 01:12:27;;;;;;;21.85;16.25;;;;;;;7.40;100.00;98037.44;4159316;28;20253;-87
2022/12/21 01:14:30;;;;;;;18.02;15.55;;;;;;;7.41;100.00;98044.28;4162343;28;20257;-88
2022/12/21 01:16:34;;;;;;;17.52;15.48;;;;;;;7.43;100.00;98038.09;4142588;28;20206;-87
2022/12/21 01:18:37;;;;;;;17.08;14.82;;;;;;;7.43;100.00;98043.28;4160950;28;20252;-87
2022/12/21 01:20:41;;;;;;;19.67;15.88;;;;;;;7.47;100.00;98046.53;4160067;28;20555;-88
2022/12/21 01:22:45;;;;;;;16.83;14.68;;;;;;;7.48;100.00;98041.25;4142036;28;20222;-87
2022/12/21 01:24:48;;;;;;;18.65;15.02;;;;;;;7.51;100.00;98051.47;4138094;28;20576;-87
2022/12/21 01:26:51;;;;;;;22.15;16.42;;;;;;;7.51;100.00;98041.91;4141784;28;20218;-88
2022/12/21 01:28:55;;;;;;;17.70;15.05;;;;;;;7.53;100.00;98047.00;4142173;28;20730;-87
2022/12/21 01:31:01;;;;;;;19.30;15.10;;;;;;;7.55;100.00;98046.00;4159237;28;20222;-88
2022/12/21 01:33:06;;;;;;;18.83;14.82;;;;;;;7.57;100.00;98046.75;4137653;28;20639;-88
2022/12/21 01:35:10;;;;;;;18.27;14.57;;;;;;;7.57;100.00;98049.34;4154801;28;20237;-88
2022/12/21 01:37:13;;;;;;;17.10;15.05;;;;;;;7.59;100.00;98054.44;4161650;28;20302;-88
2022/12/21 01:39:17;;;;;;;19.05;15.55;;;;;;;7.59;100.00;98049.25;4143412;28;20200;-88
2022/12/21 01:41:22;;;;;;;18.15;15.70;;;;;;;7.61;100.00;98052.63;4159816;28;20229;-88
2022/12/21 01:43:44;;;;;;;18.20;15.13;;;;;;;7.62;100.00;98049.94;4172955;28;20211;-88
2022/12/21 01:45:51;;;;;;;16.70;14.52;;;;;;;7.63;100.00;98048.16;4157012;28;21080;-87
2022/12/21 01:47:56;;;;;;;17.30;14.52;;;;;;;7.65;100.00;98049.78;4165722;28;20206;-88
2022/12/21 01:50:01;;;;;;;16.73;14.93;;;;;;;7.68;100.00;98048.72;4139743;28;20218;-88
2022/12/21 01:52:07;;;;;;;20.13;15.52;;;;;;;7.69;100.00;98040.03;4161178;28;20214;-88
2022/12/21 01:54:14;;;;;;;17.92;15.00;;;;;;;7.70;100.00;98036.53;4143168;28;20659;-88
2022/12/21 01:56:23;;;;;;;18.92;15.50;;;;;;;7.70;100.00;98034.75;4170264;28;20218;-88
2022/12/21 01:58:27;;;;;;;18.88;14.90;;;;;;;7.72;100.00;98045.06;4142310;28;20259;-88
2022/12/21 02:00:33;;;;;;;20.08;16.08;;;;;;;7.73;100.00;98031.97;4143525;28;20700;-88
2022/12/21 02:02:39;;;;;;;18.98;16.30;;;;;;;7.73;100.00;98031.16;4159500;28;20269;-88
2022/12/21 02:04:42;;;;;;;18.40;16.23;;;;;;;7.73;100.00;98026.78;4163612;28;20207;-88
2022/12/21 02:06:48;;;;;;;11.32;10.13;;;;;;;7.74;100.00;98025.88;4157121;28;20288;-88
2022/12/21 02:08:53;;;;;;;18.83;13.68;;;;;;;7.86;100.00;98022.53;4144229;28;20227;-88
2022/12/21 02:10:57;;;;;;;19.52;15.60;;;;;;;7.92;100.00;98029.16;4158469;28;20850;-88
2022/12/21 02:13:05;;;;;;;16.27;14.48;;;;;;;7.96;100.00;98025.44;4140154;28;20588;-88
2022/12/21 02:15:09;;;;;;;15.70;10.90;;;;;;;7.99;100.00;98026.09;4167784;28;20724;-88
2022/12/21 02:17:21;;;;;;;16.80;14.45;;;;;;;8.06;100.00;98027.41;4157324;28;20230;-88
2022/12/21 02:20:00;;;;;;;17.33;13.65;;;;;;;8.11;100.00;98018.44;4188512;28;20220;-88
2022/12/21 02:22:05;;;;;;;18.73;13.70;;;;;;;8.13;100.00;98014.00;4116273;28;20298;-88
2022/12/21 02:24:38;;;;;;;17.13;13.45;;;;;;;8.18;100.00;98021.53;4160224;28;20629;-88
2022/12/21 02:26:53;;;;;;;19.92;16.50;;;;;;;8.18;100.00;98016.34;4160811;28;20209;-88
2022/12/21 02:29:27;;;;;;;11.32;9.20;;;;;;;8.19;100.00;98021.41;4138733;28;20239;-88
2022/12/21 02:31:34;;;;;;;16.52;12.60;;;;;;;8.23;100.00;98017.72;4134787;28;20246;-88
2022/12/21 02:33:56;;;;;;;15.48;11.50;;;;;;;8.28;100.00;98018.25;4141681;28;20210;-87
2022/12/21 02:36:09;;;;;;;17.27;15.10;;;;;;;8.31;100.00;98023.25;4156235;28;20203;-88
2022/12/21 02:38:30;;;;;;;11.88;8.80;;;;;;;8.34;100.00;98019.66;4170228;28;21206;-87
2022/12/21 02:40:39;;;;;;;12.60;9.50;;;;;;;8.41;100.00;98021.78;4156794;28;20214;-88
2022/12/21 02:45:14;;;;;;;15.07;9.45;;;;;;;8.46;100.00;98014.53;4153296;28;20650;-88
2022/12/21 02:47:22;;;;;;;10.27;8.10;;;;;;;8.52;100.00;98028.03;4173505;28;20225;-88
2022/12/21 02:49:35;;;;;;;10.55;7.47;;;;;;;8.62;100.00;98025.69;4172324;28;20217;-88
2022/12/21 02:51:42;;;;;;;13.77;11.30;;;;;;;8.72;100.00;98021.56;4155662;28;20206;-87
2022/12/21 02:53:46;;;;;;;10.20;8.60;;;;;;;8.80;100.00;98021.94;4157405;28;20634;-88
2022/12/21 02:55:49;;;;;;;10.55;9.07;;;;;;;8.84;100.00;98011.25;4158021;28;20629;-88
2022/12/21 02:58:12;;;;;;;11.30;9.60;;;;;;;8.92;100.00;98003.81;4158443;28;20218;-87
2022/12/21 03:00:18;;;;;;;14.83;9.83;;;;;;;8.98;100.00;98008.63;4183705;28;20712;-88
2022/12/21 03:02:40;;;;;;;10.32;9.23;;;;;;;9.00;100.00;98002.38;4157582;28;20671;-88
2022/12/21 03:04:56;;;;;;;14.20;8.50;;;;;;;9.09;100.00;98008.75;4154081;28;20199;-87
2022/12/21 03:07:15;;;;;;;9.93;8.07;;;;;;;9.13;100.00;98003.25;4152859;28;20656;-88
2022/12/21 03:09:28;;;;;;;11.53;8.50;;;;;;;9.19;100.00;98013.28;4140568;28;20642;-88
2022/12/21 03:11:35;;;;;;;8.45;6.80;;;;;;;9.24;100.00;98011.22;4188325;28;20632;-88
2022/12/21 03:13:45;;;;;;;8.93;8.03;;;;;;;9.24;100.00;98011.22;4174106;28;20654;-88
2022/12/21 03:15:55;;;;;;;11.23;8.60;;;;;;;9.26;100.00;98011.97;4141571;28;21294;-88
2022/12/21 03:18:02;;;;;;;11.25;8.25;;;;;;;9.28;100.00;98009.25;4131656;28;20757;-88
2022/12/21 03:20:10;;;;;;;10.50;8.80;;;;;;;9.31;100.00;98017.69;4154601;28;20243;-88
2022/12/21 03:22:21;;;;;;;9.63;7.13;;;;;;;9.34;100.00;98014.06;4164800;28;20658;-88
2022/12/21 03:24:27;;;;;;;9.37;6.63;;;;;;;9.38;100.00;98012.94;4155053;28;20644;-87
2022/12/21 03:26:34;;;;;;;13.67;8.00;;;;;;;9.43;100.00;98012.53;4148238;28;21009;-88
2022/12/21 03:28:39;;;;;;;9.27;6.80;;;;;;;9.47;100.00;98013.16;4173813;28;20649;-87
2022/12/21 03:30:44;;;;;;;9.90;8.00;;;;;;;9.45;100.00;98013.25;4155090;28;20629;-87
2022/12/21 03:32:53;;;;;;;8.27;7.37;;;;;;;9.41;100.00;98003.13;4157391;28;20626;-88
2022/12/21 03:34:57;;;;;;;7.87;6.67;;;;;;;9.42;100.00;98010.03;4154839;28;21092;-87
2022/12/21 03:37:04;;;;;;;10.30;7.80;;;;;;;9.45;100.00;98012.44;4155147;28;20630;-87
2022/12/21 03:39:09;;;;;;;8.97;8.07;;;;;;;9.47;100.00;98008.81;4172469;28;20767;-88
2022/12/21 03:41:15;;;;;;;9.27;7.23;;;;;;;9.48;100.00;98015.66;4189696;28;20631;-88
2022/12/21 03:43:21;;;;;;;9.50;8.13;;;;;;;9.52;100.00;98011.09;4169589;28;21322;-88
2022/12/21 03:45:28;;;;;;;9.93;6.97;;;;;;;9.54;100.00;98004.03;4152296;28;20645;-88
2022/12/21 03:47:34;;;;;;;8.77;6.30;;;;;;;9.58;100.00;98005.50;4156415;28;20652;-88
2022/12/21 03:49:41;;;;;;;9.87;7.00;;;;;;;9.64;100.00;98012.91;4154353;28;20638;-88
2022/12/21 03:51:49;;;;;;;8.40;6.50;;;;;;;9.65;100.00;98006.75;4156876;28;20626;-88
2022/12/21 03:53:56;;;;;;;7.40;6.40;;;;;;;9.70;100.00;98010.72;4148147;28;20645;-87
2022/12/21 03:56:03;;;;;;;11.53;7.60;;;;;;;9.74;100.00;98008.75;4153601;28;20626;-88
2022/12/21 03:58:06;;;;;;;5.93;5.32;;;;;;;9.78;100.00;98002.41;4160280;28;20661;-88
2022/12/21 04:00:11;;;;;;;9.73;7.00;;;;;;;9.74;100.00;97996.56;4154650;28;20202;-88
2022/12/21 04:02:18;;;;;;;6.93;5.40;;;;;;;9.77;100.00;97998.13;4156347;28;20641;-88
2022/12/21 04:04:25;;;;;;;5.90;4.87;;;;;;;9.80;100.00;97990.09;4159670;28;20625;-88
2022/12/21 04:06:33;;;;;;;8.03;6.40;;;;;;;9.84;100.00;98002.81;4140150;28;20769;-88
2022/12/21 04:08:38;;;;;;;7.00;5.30;;;;;;;9.84;100.00;97995.00;4151920;28;20673;-87
2022/12/21 04:10:41;;;;;;;9.13;5.33;;;;;;;9.88;100.00;98005.13;4157611;28;20633;-87
2022/12/21 04:12:46;;;;;;;6.97;4.50;;;;;;;9.88;100.00;97994.69;4155965;28;20637;-88
2022/12/21 04:14:49;;;;;;;7.30;4.70;;;;;;;9.93;100.00;97987.44;4142099;28;21045;-88
2022/12/21 04:16:52;;;;;;;7.37;4.20;;;;;;;9.97;100.00;97994.13;4159138;28;21207;-87
2022/12/21 04:21:17;;;;;;;5.50;4.50;;;;;;;10.04;100.00;97994.53;4155374;28;20671;-87
2022/12/21 04:28:09;;;;;;;8.37;4.83;;;;;;;10.13;100.00;97994.75;4167796;28;21440;-88
2022/12/21 04:30:32;;;;;;;7.13;4.80;;;;;;;10.17;100.00;97985.78;4156747;28;21224;-88
2022/12/21 04:32:35;;;;;;;5.63;4.33;;;;;;;10.17;100.00;97996.19;4139076;28;20652;-89
2022/12/21 04:34:38;;;;;;;6.47;4.10;;;;;;;10.18;100.00;97990.06;4155858;28;20992;-89
2022/12/21 04:39:04;;;;;;;5.70;4.00;;;;;;;10.24;100.00;97991.38;4170454;28;20629;-88
2022/12/21 04:41:09;;;;;;;4.63;4.00;;;;;;;10.24;100.00;97997.47;4179553;28;20664;-88
2022/12/21 04:43:12;;;;;;;7.40;4.20;;;;;;;10.25;100.00;97993.06;4146752;28;20649;-88
2022/12/21 04:45:15;;;;;;;6.27;4.50;;;;;;;10.26;100.00;97984.31;4172290;28;20659;-88
2022/12/21 04:47:18;;;;;;;4.43;4.03;;;;;;;10.27;100.00;97993.78;4160029;28;20736;-88
2022/12/21 04:49:21;;;;;;;5.57;4.47;;;;;;;10.29;100.00;97992.75;4159804;28;21285;-88
2022/12/21 04:51:26;;;;;;;5.50;4.23;;;;;;;10.32;100.00;97991.72;4143449;28;21255;-88
2022/12/21 04:53:29;;;;;;;6.53;4.27;;;;;;;10.31;100.00;97998.69;4153799;28;20667;-88
2022/12/21 04:55:32;;;;;;;6.23;3.90;;;;;;;10.33;100.00;97982.00;4160126;28;20728;-88
2022/12/21 04:57:36;;;;;;;4.30;3.90;;;;;;;10.34;100.00;97995.88;4160456;28;20636;-88
2022/12/21 04:59:39;;;;;;;5.33;4.20;;;;;;;10.37;100.00;97990.44;4158535;28;20641;-88
2022/12/21 05:01:42;;;;;;;5.90;3.60;;;;;;;10.37;100.00;97995.66;4161261;28;20731;-89
2022/12/21 05:03:50;;;;;;;4.37;3.80;;;;;;;10.38;100.00;97994.72;4162635;28;21093;-88
2022/12/21 05:05:54;;;;;;;4.30;3.80;;;;;;;10.40;100.00;97991.09;4190217;28;20632;-88
2022/12/21 05:07:57;;;;;;;5.30;4.13;;;;;;;10.42;100.00;97991.81;4158717;28;20645;-88
2022/12/21 05:10:00;;;;;;;6.93;3.90;;;;;;;10.43;100.00;97983.06;4160943;28;20672;-89
2022/12/21 05:12:03;;;;;;;6.10;4.10;;;;;;;10.45;100.00;97988.16;4161603;28;20625;-89
2022/12/21 05:14:07;;;;;;;4.20;3.80;;;;;;;10.45;100.00;97998.59;4158144;28;20634;-88
2022/12/21 05:16:12;;;;;;;5.20;4.07;;;;;;;10.46;100.00;97993.28;4188716;28;20627;-87
2022/12/21 05:18:15;;;;;;;4.80;3.50;;;;;;;10.47;100.00;97989.72;4159711;28;20711;-88
2022/12/21 05:20:18;;;;;;;4.10;3.70;;;;;;;10.47;100.00;97989.72;4189795;28;20635;-88
2022/12/21 05:22:21;;;;;;;3.90;3.50;;;;;;;10.48;100.00;97993.16;4159304;28;20654;-88
2022/12/21 05:24:24;;;;;;;6.77;3.80;;;;;;;10.48;100.00;97995.78;4159169;28;20653;-88
2022/12/21 05:26:28;;;;;;;5.50;3.40;;;;;;;10.49;100.00;97990.47;4159555;28;20622;-88
2022/12/21 05:28:31;;;;;;;5.70;3.50;;;;;;;10.49;100.00;97994.81;4186843;28;20686;-88
2022/12/21 05:30:35;;;;;;;5.10;3.70;;;;;;;10.50;100.00;97993.88;4172247;28;20639;-88
2022/12/21 05:32:39;;;;;;;4.70;3.70;;;;;;;10.51;100.00;97990.34;4152506;28;20684;-88
2022/12/21 05:34:42;;;;;;;5.83;4.40;;;;;;;10.48;100.00;97991.38;4157262;28;20687;-88
2022/12/21 05:36:45;;;;;;;4.67;3.67;;;;;;;10.48;100.00;97980.13;4188040;28;20655;-88
2022/12/21 05:38:48;;;;;;;6.00;3.97;;;;;;;10.50;100.00;97984.28;4158383;28;20621;-88
2022/12/21 05:40:52;;;;;;;4.63;4.20;;;;;;;10.50;100.00;97989.50;4160839;28;20626;-88
2022/12/21 05:42:55;;;;;;;5.63;3.37;;;;;;;10.51;100.00;97985.97;4173630;28;20637;-87
2022/12/21 05:44:58;;;;;;;6.73;3.30;;;;;;;10.53;100.00;97980.63;4155965;28;21245;-88
2022/12/21 05:47:02;;;;;;;5.13;3.70;;;;;;;10.54;100.00;97977.91;4158362;28;20644;-89
2022/12/21 05:49:06;;;;;;;5.70;3.60;;;;;;;10.54;100.00;97979.66;4155478;28;20664;-90
2022/12/21 05:51:10;;;;;;;3.90;3.10;;;;;;;10.53;100.00;97978.84;4156763;28;20636;-90
2022/12/21 05:53:15;;;;;;;4.70;3.90;;;;;;;10.57;100.00;97984.69;4157855;28;20653;-90
2022/12/21 05:55:18;;;;;;;4.53;3.67;;;;;;;10.55;100.00;97973.53;4160040;28;20633;-90
2022/12/21 05:57:21;;;;;;;5.00;3.17;;;;;;;10.53;100.00;97968.41;4160941;28;20691;-90
2022/12/21 05:59:24;;;;;;;4.83;3.43;;;;;;;10.51;100.00;97978.13;4144618;28;20676;-90
2022/12/21 06:01:27;;;;;;;7.50;3.87;;;;;;;10.52;100.00;97977.16;4155507;28;20646;-88
2022/12/21 06:03:32;;;;;;;3.97;3.53;;;;;;;10.53;100.00;97975.41;4154802;28;20625;-88
2022/12/21 06:05:35;;;;;;;5.20;3.77;;;;;;;10.53;100.00;97978.03;4154900;28;20632;-87
2022/12/21 06:07:38;;;;;;;4.83;3.90;;;;;;;10.56;100.00;97976.03;4158336;28;20635;-87
2022/12/21 06:09:41;;;;;;;5.10;3.40;;;;;;;10.60;100.00;97984.47;4150720;28;20746;-88
2022/12/21 06:11:44;;;;;;;4.00;3.27;;;;;;;10.63;100.00;97973.81;4151637;28;20638;-88
2022/12/21 06:13:47;;;;;;;4.70;3.33;;;;;;;10.64;100.00;97970.28;4161213;28;20719;-88
2022/12/21 06:15:50;;;;;;;5.97;4.23;;;;;;;10.66;100.00;97984.88;4138409;28;20638;-88
2022/12/21 06:17:54;;;;;;;5.30;3.50;;;;;;;10.67;100.00;97973.50;4186290;28;20646;-89
2022/12/21 06:20:08;;;;;;;3.87;3.47;;;;;;;10.70;100.00;97977.66;4155307;28;21110;-87
2022/12/21 06:22:11;;;;;;;3.90;3.33;;;;;;;10.69;100.00;97971.63;4160293;28;20633;-87
2022/12/21 06:24:14;;;;;;;5.43;3.13;;;;;;;10.70;100.00;97975.88;4160431;28;20685;-87
2022/12/21 06:26:19;;;;;;;3.97;3.30;;;;;;;10.72;100.00;97973.16;4159279;28;20634;-87
2022/12/21 06:28:22;;;;;;;5.30;3.80;;;;;;;10.75;100.00;97975.56;4151980;28;20643;-87
2022/12/21 06:30:25;;;;;;;4.97;3.90;;;;;;;10.76;100.00;97980.66;4153783;28;20675;-87
2022/12/21 06:32:28;;;;;;;4.10;3.67;;;;;;;10.77;100.00;97971.91;4161517;28;20624;-87
2022/12/21 06:34:31;;;;;;;4.97;3.73;;;;;;;10.80;100.00;97971.69;4156085;28;20614;-88
2022/12/21 06:36:35;;;;;;;4.47;3.50;;;;;;;10.82;100.00;97978.47;4160599;28;20637;-88
2022/12/21 06:38:39;;;;;;;8.33;4.60;;;;;;;10.82;100.00;97981.09;4150346;28;21053;-89
2022/12/21 06:40:42;;;;;;;4.90;3.50;;;;;;;10.81;100.00;97975.97;4190446;28;20654;-88
2022/12/21 06:42:45;;;;;;;5.60;3.50;;;;;;;10.82;100.00;97975.88;4153392;28;20673;-87
2022/12/21 06:44:50;;;;;;;5.40;3.47;;;;;;;10.83;100.00;97977.53;4156085;28;20653;-87
2022/12/21 06:46:53;;;;;;;4.43;3.40;;;;;;;10.84;100.00;97978.38;4176101;28;21175;-88
2022/12/21 06:48:56;;;;;;;7.13;3.70;;;;;;;10.85;100.00;97983.47;4159406;28;20637;-88
2022/12/21 06:51:01;;;;;;;5.13;3.83;;;;;;;10.86;100.00;97981.69;4152138;28;20986;-88
2022/12/21 06:53:05;;;;;;;4.77;3.40;;;;;;;10.85;100.00;97982.63;4151255;28;20679;-88
2022/12/21 06:55:09;;;;;;;3.60;2.80;;;;;;;10.87;100.00;97985.97;4157766;28;20676;-87
2022/12/21 06:57:12;;;;;;;4.57;3.80;;;;;;;10.84;100.00;97981.81;4153750;28;20690;-87
2022/12/21 06:59:15;;;;;;;4.00;3.13;;;;;;;10.86;100.00;97982.53;4153489;28;20706;-88
2022/12/21 07:01:19;;;;;;;4.00;3.10;;;;;;;10.85;100.00;97980.03;4155243;28;20683;-88
2022/12/21 07:03:22;;;;;;;3.83;3.53;;;;;;;10.86;100.00;97977.31;4155150;28;20649;-87
2022/12/21 07:05:25;;;;;;;4.07;3.50;;;;;;;10.86;100.00;97987.75;4149873;28;21220;-88
2022/12/21 07:07:29;;;;;;;5.63;3.40;;;;;;;10.86;100.00;97982.53;4151678;28;20633;-88
2022/12/21 07:09:33;;;;;;;5.43;3.90;;;;;;;10.88;100.00;97983.25;4148817;28;20657;-85
2022/12/21 07:11:39;;;;;;;4.10;3.70;;;;;;;10.88;100.00;97985.88;4141247;28;21219;-87
2022/12/21 07:13:44;;;;;;;4.30;3.60;;;;;;;10.88;100.00;97985.88;4159131;28;21224;-89
2022/12/21 07:15:47;;;;;;;3.37;3.07;;;;;;;10.88;100.00;97987.63;4152295;28;21506;-87
2022/12/21 07:17:50;;;;;;;4.33;3.60;;;;;;;10.90;100.00;97988.38;4164540;28;20739;-87
2022/12/21 07:19:53;;;;;;;4.97;3.90;;;;;;;10.90;100.00;97988.38;4152661;28;20646;-88
2022/12/21 07:21:56;;;;;;;4.00;3.40;;;;;;;10.91;100.00;97985.63;4158799;28;20646;-88
2022/12/21 07:23:59;;;;;;;5.40;3.40;;;;;;;10.93;100.00;97985.50;4149485;28;20648;-89
2022/12/21 07:26:06;;;;;;;6.60;4.77;;;;;;;10.92;100.00;97987.31;4150570;28;20674;-88
2022/12/21 07:28:11;;;;;;;5.70;3.53;;;;;;;10.94;100.00;97987.19;4151875;28;21220;-87
2022/12/21 07:30:17;;;;;;;4.70;4.03;;;;;;;10.93;100.00;97988.97;4155887;28;20734;-87
2022/12/21 07:32:20;;;;;;;4.40;3.60;;;;;;;10.93;100.00;97993.34;4179513;28;20714;-88
2022/12/21 07:34:23;;;;;;;5.43;3.40;;;;;;;10.97;100.00;98002.63;4137123;28;21032;-87
2022/12/21 07:36:26;;;;;;;6.47;3.77;;;;;;;10.95;100.00;97992.31;4170798;28;20666;-87
2022/12/21 07:38:30;;;;;;;4.10;3.40;;;;;;;10.97;100.00;97997.41;4157021;28;20635;-87
2022/12/21 07:40:33;;;;;;;4.97;3.10;;;;;;;10.96;100.00;97996.59;4141354;28;20630;-86
2022/12/21 07:42:38;;;;;;;8.97;2.87;;;;;;;10.97;100.00;97998.22;4156357;28;20993;-86
2022/12/21 07:44:52;;;;;;;4.83;3.50;;;;;;;11.00;100.00;98000.63;4141034;28;20660;-87
2022/12/21 07:47:06;;;;;;;4.30;2.90;;;;;;;11.01;100.00;97986.66;4168167;28;20717;-86
2022/12/21 07:49:09;;;;;;;4.43;3.00;;;;;;;11.02;100.00;98003.13;4162577;28;20715;-86
2022/12/21 07:51:12;;;;;;;3.77;3.40;;;;;;;11.01;100.00;98001.47;4153287;28;21829;-86
2022/12/21 07:53:16;;;;;;;3.83;3.10;;;;;;;11.02;100.00;97993.53;4166319;28;20625;-87
2022/12/21 07:55:19;;;;;;;5.97;4.50;;;;;;;11.03;100.00;98000.41;4137707;28;20636;-86
2022/12/21 07:57:22;;;;;;;4.50;3.00;;;;;;;11.04;100.00;98006.47;4154360;28;21246;-85
2022/12/21 07:59:26;;;;;;;4.33;3.30;;;;;;;11.02;100.00;98001.38;4156930;28;20673;-87
2022/12/21 08:01:30;;;;;;;5.83;3.43;;;;;;;11.04;100.00;98006.47;4150529;28;20687;-87
2022/12/21 08:03:33;;;;;;;4.50;2.87;;;;;;;11.02;100.00;98003.97;4159147;28;20639;-87
2022/12/21 08:05:37;;;;;;;5.40;3.10;;;;;;;11.03;100.00;98000.41;4147703;28;21276;-86
2022/12/21 08:07:40;;;;;;;4.50;2.93;;;;;;;11.05;100.00;98002.91;4154548;28;21069;-86
2022/12/21 08:09:43;;;;;;;5.07;2.57;;;;;;;11.06;100.00;98002.81;4157393;28;21264;-86
2022/12/21 08:11:46;;;;;;;5.47;3.07;;;;;;;11.06;100.00;98000.19;4158043;28;21747;-86
2022/12/21 08:13:50;;;;;;;7.00;3.10;;;;;;;11.06;100.00;98007.19;4153489;28;20729;-86
2022/12/21 08:16:00;;;;;;;6.40;3.33;;;;;;;11.07;100.00;98009.69;4140641;28;20700;-86
2022/12/21 08:18:04;;;;;;;4.23;3.83;;;;;;;11.05;100.00;98008.13;4149916;28;20696;-86
2022/12/21 08:20:13;;;;;;;3.10;2.80;;;;;;;11.04;100.00;98007.31;4155303;28;20656;-86
2022/12/21 08:22:17;;;;;;;5.27;3.00;;;;;;;11.05;100.00;98011.59;4136618;28;20631;-86
2022/12/21 08:24:20;;;;;;;5.40;3.33;;;;;;;11.06;100.00;98005.41;4169926;28;20634;-86
2022/12/21 08:26:23;;;;;;;3.20;2.90;;;;;;;11.05;100.00;98010.75;4153836;28;21235;-87
2022/12/21 08:28:28;;;;;;;4.03;2.70;;;;;;;11.03;100.00;98005.63;4167842;28;20736;-87
2022/12/21 08:30:31;;;;;;;6.70;3.40;;;;;;;11.02;100.00;98008.34;4140019;28;21263;-87
2022/12/21 08:32:36;;;;;;;4.00;3.00;;;;;;;11.04;100.00;98011.69;4150550;28;20630;-87
2022/12/21 08:34:39;;;;;;;3.90;3.00;;;;;;;11.00;100.00;98011.06;4133887;28;22060;-87
2022/12/21 08:36:48;;;;;;;5.23;3.00;;;;;;;11.00;100.00;98016.28;4152714;28;20666;-87
2022/12/21 08:38:53;;;;;;;4.17;3.00;;;;;;;10.97;100.00;98010.47;4168542;28;20632;-86
2022/12/21 08:41:13;;;;;;;4.73;2.97;;;;;;;10.97;100.00;98016.50;4153831;28;20697;-86
2022/12/21 08:43:16;;;;;;;6.30;2.97;;;;;;;10.96;100.00;98014.84;4157390;28;20663;-86
2022/12/21 08:45:19;;;;;;;4.53;3.20;;;;;;;10.97;100.00;98019.09;4168595;28;20648;-85
2022/12/21 08:47:22;;;;;;;5.00;3.70;;;;;;;10.97;100.00;98015.69;4150410;28;21344;-85
2022/12/21 08:49:26;;;;;;;4.50;3.20;;;;;;;10.98;100.00;98022.56;4155573;28;20637;-86
2022/12/21 08:51:29;;;;;;;4.77;4.27;;;;;;;10.98;100.00;98015.56;4138644;28;20639;-86
2022/12/21 08:53:34;;;;;;;6.03;5.07;;;;;;;11.00;100.00;98024.13;4160791;28;20636;-87
2022/12/21 08:55:37;;;;;;;4.43;3.60;;;;;;;11.00;100.00;98016.28;4155978;28;20637;-88
2022/12/21 08:57:40;;;;;;;5.57;4.07;;;;;;;11.01;100.00;98020.56;4164599;28;20641;-87
2022/12/21 08:59:43;;;;;;;6.17;3.90;;;;;;;11.05;100.00;98023.78;4134996;28;20676;-88
2022/12/21 09:01:52;;;;;;;4.83;3.23;;;;;;;11.05;100.00;98026.41;4152896;28;20723;-86
2022/12/21 09:03:55;;;;;;;3.83;3.00;;;;;;;11.07;100.00;98027.97;4164801;28;20691;-87
2022/12/21 09:06:02;;;;;;;3.77;3.13;;;;;;;11.10;100.00;98032.97;4184486;28;20666;-85
2022/12/21 09:08:11;;;;;;;5.20;3.23;;;;;;;11.10;100.00;98030.34;4138575;28;20650;-88
2022/12/21 09:10:14;;;;;;;4.93;2.77;;;;;;;11.10;100.00;98019.91;4147441;28;20657;-89
2022/12/21 09:12:17;;;;;;;4.17;2.60;;;;;;;11.09;100.00;98028.69;4136817;28;20637;-88
2022/12/21 09:14:20;;;;;;;4.77;3.00;;;;;;;11.09;100.00;98028.69;4155842;28;21300;-88
2022/12/21 09:16:24;;;;;;;5.93;2.97;;;;;;;11.12;100.00;98025.03;4142313;28;21470;-87
2022/12/21 09:18:27;;;;;;;8.33;3.40;;;;;;;11.15;100.00;98037.84;4168927;28;21200;-87
2022/12/21 09:20:30;;;;;;;5.53;2.97;;;;;;;11.14;100.00;98031.81;4156021;28;20637;-88
2022/12/21 09:22:35;;;;;;;5.33;3.00;;;;;;;11.15;100.00;98030.03;4141526;28;20627;-88
2022/12/21 09:24:38;;;;;;;6.70;3.67;;;;;;;11.16;100.00;98037.75;4155236;28;20682;-87
2022/12/21 09:26:41;;;;;;;3.50;2.97;;;;;;;11.16;100.00;98037.75;4191736;28;21104;-87
2022/12/21 09:28:44;;;;;;;5.60;2.73;;;;;;;11.16;100.00;98037.75;4157925;28;20633;-87
2022/12/21 09:30:47;;;;;;;4.00;2.93;;;;;;;11.21;100.00;98040.03;4159370;28;20626;-87
2022/12/21 09:32:50;;;;;;;4.70;3.17;;;;;;;11.20;100.00;98043.56;4171832;28;20670;-87
2022/12/21 09:34:54;;;;;;;4.33;2.87;;;;;;;11.19;100.00;98042.75;4161988;28;20652;-95
2022/12/21 09:36:59;;;;;;;4.83;3.57;;;;;;;11.20;100.00;98038.34;4154331;28;20661;-93
2022/12/21 09:39:24;;;;;;;4.30;3.10;;;;;;;11.25;100.00;98044.94;4147920;28;20642;-95
2022/12/21 09:41:50;;;;;;;5.90;3.60;;;;;;;11.25;100.00;98034.47;4178234;28;20642;-94
2022/12/21 09:44:19;;;;;;;4.90;4.10;;;;;;;11.27;100.00;98043.88;4148899;28;21210;-96
2022/12/21 09:46:23;;;;;;;4.50;3.00;;;;;;;11.28;100.00;98047.31;4169145;28;20668;-93
2022/12/21 09:48:32;;;;;;;4.30;3.00;;;;;;;11.27;100.00;98043.88;4153303;28;20669;-94
2022/12/21 09:50:43;;;;;;;6.60;2.97;;;;;;;11.30;100.00;98042.81;4160693;28;20643;-94
2022/12/21 09:52:51;;;;;;;3.57;3.07;;;;;;;11.33;100.00;98042.59;4168794;28;20636;-94
2022/12/21 09:54:59;;;;;;;4.63;3.47;;;;;;;11.34;100.00;98044.25;4176047;28;20714;-92
2022/12/21 09:57:02;;;;;;;6.87;4.30;;;;;;;11.34;100.00;98044.25;4149194;28;20637;-93